This is the latest recevied weather packets stored in our database for station/object JQ3CCU-10. If no packets are shown the sender has not sent any weather packets the latest 10 day(s).
| Time | Temp. | Humidity | Pressure | Rain* | Wind** | Luminosity | Snow |
|---|---|---|---|---|---|---|---|
| 1778001855 | 20° C | 72% | - | - | 0 m/s | - | - |
| 1778000055 | 20° C | 72% | - | - | 0 m/s | - | - |
| 1777998255 | 20° C | 65% | - | - | 0 m/s | - | - |
| 1777996455 | 20° C | 65% | - | - | 0 m/s | - | - |
| 1777994655 | 20° C | 70% | - | - | 0 m/s | - | - |
| 1777992855 | 20° C | 70% | - | - | 0 m/s | - | - |
| 1777991055 | 21.11° C | 69% | - | - | 0 m/s | - | - |
| 1777989255 | 21.11° C | 69% | - | - | 0 m/s | - | - |
| 1777987455 | 21.67° C | 69% | - | - | 0 m/s | - | - |
| 1777985655 | 21.67° C | 69% | - | - | 0 m/s | - | - |
| 1777983855 | 22.22° C | 63% | - | - | 0 m/s | - | - |
| 1777982055 | 22.22° C | 63% | - | - | 0 m/s | - | - |
| 1777980255 | 22.78° C | 62% | - | - | 0 m/s | - | - |
| 1777978455 | 22.78° C | 62% | - | - | 0 m/s | - | - |
| 1777976655 | 24.44° C | 56% | - | - | 0 m/s | - | - |
| 1777974855 | 24.44° C | 56% | - | - | 0 m/s | - | - |
| 1777973055 | 25.56° C | 53% | - | - | 0 m/s | - | - |
| 1777971255 | 25.56° C | 53% | - | - | 0 m/s | - | - |
| 1777969455 | 25° C | 52% | - | - | 0 m/s | - | - |
| 1777967655 | 25° C | 52% | - | - | 0 m/s | - | - |
| 1777965855 | 25° C | 52% | - | - | 0 m/s | - | - |
| 1777964055 | 25° C | 52% | - | - | 0 m/s | - | - |
| 1777962255 | 24.44° C | 53% | - | - | 0 m/s | - | - |
| 1777960455 | 24.44° C | 53% | - | - | 0 m/s | - | - |
| 1777958655 | 24.44° C | 53% | - | - | 0 m/s | - | - |
* Rain since midnight (hover to see other rain measurements)
** Current wind speed in m/s (hover to see current wind gust speed)